Time;durP1;ratioP1;P1;durP2;ratioP2;P2;SDS_P1;SDS_P2;PMS_P1;PMS_P2;Temp;Humidity;BMP_temperature;BMP_pressure;BME280_temperature;BME280_humidity;BME280_pressure;Samples;Min_cycle;Max_cycle;Signal;HPM_P1;HPM_P2
2021/05/16 00:00:32;;;;;;;7.97;3.20;;;;;;;16.66;57.41;100013.17;125186;1102;104254;-76
2021/05/16 00:03:19;;;;;;;9.50;3.50;;;;;;;16.60;58.26;100016.67;125290;1099;104678;-75
2021/05/16 00:05:50;;;;;;;7.47;3.40;;;;;;;16.57;57.62;100014.02;125279;1099;102159;-76
2021/05/16 00:08:20;;;;;;;9.23;3.83;;;;;;;16.54;58.14;100028.13;125138;1102;104663;-76
2021/05/16 00:10:50;;;;;;;8.20;3.53;;;;;;;16.49;57.86;100024.58;125253;1102;104257;-76
2021/05/16 00:13:21;;;;;;;8.33;3.83;;;;;;;16.49;57.47;100021.93;125245;1102;104165;-75
2021/05/16 00:15:58;;;;;;;7.30;3.23;;;;;;;16.50;58.45;100022.80;125108;1103;102974;-76
2021/05/16 00:18:29;;;;;;;7.63;3.33;;;;;;;16.50;57.69;100025.45;125159;1102;104188;-76
2021/05/16 00:20:59;;;;;;;7.80;3.75;;;;;;;16.49;58.50;100032.52;125316;1102;102273;-75
2021/05/16 00:23:30;;;;;;;7.03;3.30;;;;;;;16.48;58.17;100030.74;125008;1102;104318;-76
2021/05/16 00:25:59;;;;;;;8.20;3.73;;;;;;;16.44;58.43;100025.42;125256;1102;104204;-76
2021/05/16 00:28:29;;;;;;;5.10;3.20;;;;;;;16.37;58.58;100034.24;125098;1102;104453;-75
2021/05/16 00:30:59;;;;;;;9.97;3.60;;;;;;;16.32;58.99;100035.09;125250;1102;104452;-75
2021/05/16 00:33:28;;;;;;;5.83;3.20;;;;;;;16.27;58.36;100033.33;125250;1102;104158;-75
2021/05/16 00:36:00;;;;;;;14.57;3.90;;;;;;;16.26;58.53;100028.89;125249;1102;104303;-76
2021/05/16 00:38:30;;;;;;;10.63;3.60;;;;;;;16.23;59.15;100029.75;125076;1102;104168;-76
2021/05/16 00:41:04;;;;;;;9.47;3.30;;;;;;;16.21;59.17;100030.64;125249;1102;104264;-76
2021/05/16 00:43:33;;;;;;;14.13;3.62;;;;;;;16.16;58.83;100028.84;125302;1102;104473;-75
2021/05/16 00:46:08;;;;;;;9.47;3.53;;;;;;;16.12;59.22;100027.05;125235;1102;104237;-76
2021/05/16 00:48:40;;;;;;;9.93;3.43;;;;;;;16.04;58.42;100034.06;125276;1102;104284;-76
2021/05/16 00:51:11;;;;;;;8.50;3.50;;;;;;;16.01;58.77;100023.46;125314;1102;103983;-76
2021/05/16 00:53:55;;;;;;;9.23;3.33;;;;;;;15.99;58.64;100027.88;125317;1102;103039;-76
2021/05/16 00:56:25;;;;;;;6.23;3.33;;;;;;;15.95;59.36;100015.48;125308;1102;104178;-76
2021/05/16 00:58:57;;;;;;;9.43;3.30;;;;;;;15.94;58.87;100011.97;125269;1102;104441;-76
2021/05/16 01:01:28;;;;;;;8.40;3.20;;;;;;;15.96;59.79;100009.33;125294;1102;102838;-76
2021/05/16 01:04:06;;;;;;;9.48;3.37;;;;;;;15.94;59.07;100005.77;124968;1102;102699;-75
2021/05/16 01:06:36;;;;;;;9.33;4.00;;;;;;;15.89;59.23;100003.09;125278;1102;104213;-76
2021/05/16 01:09:09;;;;;;;9.50;3.50;;;;;;;15.81;59.92;100015.39;125296;1102;104420;-76
2021/05/16 01:11:43;;;;;;;12.13;3.80;;;;;;;15.76;59.81;100007.40;125271;1102;104446;-76
2021/05/16 01:14:21;;;;;;;9.60;3.60;;;;;;;15.76;59.63;100022.39;125267;1102;104152;-76
2021/05/16 01:16:51;;;;;;;9.43;3.60;;;;;;;15.70;59.81;100007.35;125292;1102;104217;-76
2021/05/16 01:19:20;;;;;;;7.03;3.70;;;;;;;15.67;59.74;100009.98;125205;1102;104271;-76
2021/05/16 01:21:53;;;;;;;8.07;3.60;;;;;;;15.67;60.54;100009.10;125449;1102;103527;-76
2021/05/16 01:24:26;;;;;;;8.53;4.03;;;;;;;15.67;59.49;100017.91;126242;1099;104306;-76
2021/05/16 01:27:02;;;;;;;10.33;3.77;;;;;;;15.67;60.23;100009.98;126211;1099;102050;-76
2021/05/16 01:29:33;;;;;;;7.97;3.30;;;;;;;15.66;60.65;100007.32;125333;1099;104367;-76
2021/05/16 01:32:11;;;;;;;8.67;3.80;;;;;;;15.66;60.57;100017.90;125374;1099;104213;-75
2021/05/16 01:34:45;;;;;;;13.13;4.07;;;;;;;15.62;59.83;100014.36;126202;1098;104137;-75
2021/05/16 01:37:18;;;;;;;11.23;3.87;;;;;;;15.60;59.89;100013.47;125321;1102;104179;-76
2021/05/16 01:39:48;;;;;;;10.70;4.33;;;;;;;15.58;60.13;100009.91;126152;1099;102816;-76
2021/05/16 01:42:19;;;;;;;10.23;4.67;;;;;;;15.52;60.34;100005.48;125309;1100;104153;-76
2021/05/16 01:44:49;;;;;;;9.67;4.60;;;;;;;15.47;61.01;100009.83;125365;1099;104184;-76
2021/05/16 01:47:21;;;;;;;9.73;4.10;;;;;;;15.41;60.12;100010.68;125171;1100;104184;-76
2021/05/16 01:50:03;;;;;;;9.80;4.40;;;;;;;15.33;60.24;100007.06;125296;1099;104323;-76
2021/05/16 01:52:34;;;;;;;8.00;3.90;;;;;;;15.30;61.02;100011.45;125187;1102;104186;-76
2021/05/16 01:55:07;;;;;;;9.20;4.08;;;;;;;15.27;61.29;100012.33;126233;1099;104149;-76
2021/05/16 01:57:38;;;;;;;7.25;3.90;;;;;;;15.23;61.16;100013.16;125243;1102;104181;-76
2021/05/16 02:00:11;;;;;;;10.60;4.50;;;;;;;15.21;60.48;100014.92;125229;1102;104300;-75
2021/05/16 02:02:51;;;;;;;12.20;4.00;;;;;;;15.20;60.48;100014.01;125258;1102;104303;-76
2021/05/16 02:05:26;;;;;;;9.10;4.30;;;;;;;15.19;60.97;100021.92;125266;1102;104194;-76
2021/05/16 02:07:58;;;;;;;11.70;4.53;;;;;;;15.20;61.61;100018.42;125214;1102;102092;-76
2021/05/16 02:10:28;;;;;;;12.87;4.17;;;;;;;15.20;61.29;100013.13;125254;1102;102271;-76
2021/05/16 02:13:10;;;;;;;11.67;4.60;;;;;;;15.20;61.67;100015.78;125299;1102;104185;-76
2021/05/16 02:15:41;;;;;;;8.83;4.70;;;;;;;15.20;61.86;100019.30;125219;1102;104407;-76
2021/05/16 02:18:17;;;;;;;10.53;5.20;;;;;;;15.20;61.05;100013.13;125258;1102;104223;-76
2021/05/16 02:20:49;;;;;;;8.37;4.50;;;;;;;15.18;61.41;100009.61;125131;1102;104160;-76
2021/05/16 02:23:22;;;;;;;12.30;4.53;;;;;;;15.18;61.81;100012.25;125292;1102;104338;-76
2021/05/16 02:25:52;;;;;;;;;;;;;;;15.21;62.17;100012.27;125269;1102;104297;-76
2021/05/16 02:28:27;;;;;;;11.37;4.53;;;;;;;15.19;61.14;100019.28;124938;1102;104407;-76
2021/05/16 02:31:00;;;;;;;8.77;4.03;;;;;;;15.22;62.16;100016.66;125144;1102;104344;-76
2021/05/16 02:33:30;;;;;;;10.10;4.50;;;;;;;15.24;61.96;100014.95;125254;1102;104130;-76
2021/05/16 02:36:00;;;;;;;10.37;4.63;;;;;;;15.23;62.13;100021.97;125239;1102;102987;-76
2021/05/16 02:38:29;;;;;;;12.20;5.00;;;;;;;15.21;61.92;100021.08;124902;1101;104165;-76
2021/05/16 02:40:59;;;;;;;14.90;5.10;;;;;;;15.19;62.23;100019.28;124935;1102;104188;-76
2021/05/16 02:43:30;;;;;;;17.47;5.47;;;;;;;15.19;62.17;100016.64;124975;1102;104181;-75
2021/05/16 02:46:00;;;;;;;15.83;5.77;;;;;;;15.18;61.34;100014.89;124956;1102;104245;-76
2021/05/16 02:48:30;;;;;;;16.03;5.23;;;;;;;15.16;62.26;100016.61;124926;1102;104188;-76
2021/05/16 02:51:00;;;;;;;12.70;5.10;;;;;;;15.12;62.40;100017.47;125209;1102;104206;-76
2021/05/16 02:53:36;;;;;;;12.20;5.27;;;;;;;15.08;61.49;100020.09;125228;1102;104344;-76
2021/05/16 02:56:07;;;;;;;11.73;4.80;;;;;;;15.08;62.22;100020.09;125220;1102;104289;-76
2021/05/16 02:58:37;;;;;;;12.63;5.03;;;;;;;15.09;62.40;100024.48;125260;1102;104159;-76
2021/05/16 03:01:10;;;;;;;11.57;4.60;;;;;;;15.12;61.69;100022.76;125227;1102;104185;-76
2021/05/16 03:03:42;;;;;;;11.07;4.93;;;;;;;15.12;62.54;100038.61;125200;1102;104441;-76
2021/05/16 03:06:14;;;;;;;15.80;5.40;;;;;;;15.12;61.73;100035.97;125223;1102;104209;-76
2021/05/16 03:08:44;;;;;;;15.13;5.50;;;;;;;15.10;61.89;100035.95;125286;1102;104789;-76
2021/05/16 03:11:15;;;;;;;13.97;5.07;;;;;;;15.08;62.12;100040.32;125264;1099;104209;-76
2021/05/16 03:13:45;;;;;;;14.17;5.50;;;;;;;15.06;62.07;100044.71;126206;1099;104174;-76
2021/05/16 03:16:24;;;;;;;12.17;5.50;;;;;;;15.05;62.85;100043.84;126166;1099;104243;-76
2021/05/16 03:18:55;;;;;;;13.80;6.03;;;;;;;15.07;61.95;100034.16;125178;1102;104297;-76
2021/05/16 03:21:25;;;;;;;16.33;5.37;;;;;;;15.09;62.29;100050.91;125175;1102;102714;-76
2021/05/16 03:23:57;;;;;;;17.07;5.07;;;;;;;15.15;62.38;100052.73;126150;1099;104146;-76
2021/05/16 03:26:29;;;;;;;13.77;5.67;;;;;;;15.23;62.08;100050.16;125266;1102;104256;-76
2021/05/16 03:28:59;;;;;;;11.67;5.27;;;;;;;15.28;62.03;100045.80;125230;1102;104254;-76
2021/05/16 03:31:29;;;;;;;11.57;5.50;;;;;;;15.35;62.96;100045.00;125141;1102;102198;-76
2021/05/16 03:33:58;;;;;;;10.85;5.65;;;;;;;15.40;62.79;100053.84;125207;1102;104169;-76
2021/05/16 03:36:29;;;;;;;14.93;5.70;;;;;;;15.45;62.54;100056.53;125208;1102;104161;-76
2021/05/16 03:38:58;;;;;;;11.20;5.17;;;;;;;15.48;62.49;100047.75;125265;1102;103266;-76
2021/05/16 03:41:29;;;;;;;15.53;5.60;;;;;;;15.46;63.11;100051.25;125200;1102;102445;-76
2021/05/16 03:43:59;;;;;;;12.73;5.43;;;;;;;15.50;62.60;100059.21;125113;1102;104159;-75
2021/05/16 03:46:28;;;;;;;10.73;5.60;;;;;;;15.51;63.10;100055.70;125278;1102;104300;-76
2021/05/16 03:48:59;;;;;;;13.67;5.17;;;;;;;15.54;62.46;100050.45;125246;1102;104152;-76
2021/05/16 03:51:29;;;;;;;19.13;4.97;;;;;;;15.57;62.65;100053.98;125167;1102;104287;-76
2021/05/16 03:53:58;;;;;;;13.23;5.13;;;;;;;15.61;62.85;100060.18;125179;1102;104322;-76
2021/05/16 03:56:27;;;;;;;10.57;4.83;;;;;;;15.65;62.57;100061.98;125253;1102;104182;-76
2021/05/16 03:58:56;;;;;;;10.60;5.30;;;;;;;15.64;62.37;100060.20;126036;1099;104189;-75
2021/05/16 04:01:29;;;;;;;12.73;4.90;;;;;;;15.70;62.61;100057.61;125904;1099;104178;-76
2021/05/16 04:04:03;;;;;;;13.63;5.63;;;;;;;15.75;62.47;100049.70;125146;1099;104168;-76
2021/05/16 04:06:32;;;;;;;12.77;5.53;;;;;;;15.77;62.55;100054.18;125254;1099;104244;-76
2021/05/16 04:09:02;;;;;;;12.40;5.20;;;;;;;15.81;62.43;100053.31;125145;1101;104184;-76
2021/05/16 04:11:31;;;;;;;9.75;4.78;;;;;;;15.93;63.32;100056.94;126134;1099;104002;-76
2021/05/16 04:14:01;;;;;;;16.05;4.90;;;;;;;16.03;62.52;100061.39;126198;1099;104188;-76
2021/05/16 04:16:32;;;;;;;10.20;5.37;;;;;;;16.09;63.38;100063.20;126216;1099;104257;-76
2021/05/16 04:19:06;;;;;;;11.10;5.50;;;;;;;16.13;62.68;100057.06;125206;1102;104217;-76
2021/05/16 04:21:37;;;;;;;14.33;5.83;;;;;;;16.20;62.77;100063.27;125094;1101;104408;-76
2021/05/16 04:24:11;;;;;;;10.73;5.60;;;;;;;16.25;63.11;100056.23;124948;1102;104928;-76
2021/05/16 04:26:41;;;;;;;14.27;6.30;;;;;;;16.28;63.24;100059.80;125212;1102;104175;-77
2021/05/16 04:29:11;;;;;;;19.13;6.47;;;;;;;16.32;62.71;100060.70;125135;1102;104351;-76
2021/05/16 04:31:41;;;;;;;14.97;6.57;;;;;;;16.33;62.68;100052.77;124933;1102;104260;-76
2021/05/16 04:34:12;;;;;;;12.40;5.90;;;;;;;16.38;63.07;100055.44;124870;1102;106861;-77
2021/05/16 04:36:42;;;;;;;12.60;5.50;;;;;;;16.35;63.08;100045.70;125177;1102;104311;-76
2021/05/16 04:39:14;;;;;;;14.90;5.50;;;;;;;16.38;63.07;100055.44;125188;1102;104281;-76
2021/05/16 04:41:43;;;;;;;16.40;6.30;;;;;;;16.44;63.26;100043.97;125192;1103;104136;-76
2021/05/16 04:44:13;;;;;;;12.80;5.50;;;;;;;16.49;63.23;100045.77;124900;1102;120250;-76
2021/05/16 04:46:42;;;;;;;10.77;5.50;;;;;;;16.51;62.88;100044.00;125197;1102;104300;-76
2021/05/16 04:49:14;;;;;;;16.67;6.20;;;;;;;16.52;63.33;100042.25;125232;1102;104089;-76
2021/05/16 04:51:44;;;;;;;15.97;6.20;;;;;;;16.56;62.93;100048.44;125190;1102;104165;-76
2021/05/16 04:54:13;;;;;;;15.77;6.27;;;;;;;16.54;62.96;100051.95;125186;1102;104152;-76
2021/05/16 04:56:43;;;;;;;11.65;6.20;;;;;;;16.60;63.47;100058.18;125239;1102;104383;-76
2021/05/16 04:59:12;;;;;;;15.60;6.83;;;;;;;16.68;63.77;100057.31;125172;1102;104390;-76
2021/05/16 05:01:42;;;;;;;18.10;6.33;;;;;;;16.76;62.68;100067.06;125243;1102;104149;-76
2021/05/16 05:04:12;;;;;;;13.33;6.17;;;;;;;16.86;62.82;100058.27;125192;1102;104166;-76
2021/05/16 05:06:41;;;;;;;15.27;6.20;;;;;;;16.95;63.46;100055.66;126192;1099;104156;-76
2021/05/16 05:09:13;;;;;;;14.20;6.10;;;;;;;17.05;63.08;100064.53;125254;1099;104258;-76
2021/05/16 05:11:42;;;;;;;15.90;5.43;;;;;;;17.09;62.86;100063.64;125775;1099;104554;-77
2021/05/16 05:14:11;;;;;;;13.00;6.00;;;;;;;17.05;62.95;100068.06;125058;1102;104294;-76
2021/05/16 05:16:41;;;;;;;13.07;5.50;;;;;;;17.06;62.85;100063.63;125112;1099;104168;-76
2021/05/16 05:19:15;;;;;;;13.80;5.90;;;;;;;17.04;63.41;100071.58;125181;1099;104245;-76
2021/05/16 05:21:45;;;;;;;12.80;5.57;;;;;;;16.99;63.48;100069.82;125138;1099;104760;-76
2021/05/16 05:24:15;;;;;;;13.13;5.80;;;;;;;16.94;62.76;100071.55;125080;1099;104251;-76
2021/05/16 05:26:44;;;;;;;12.90;5.63;;;;;;;16.89;62.94;100077.74;125158;1099;104159;-76
2021/05/16 05:29:17;;;;;;;13.23;6.80;;;;;;;16.89;62.72;100075.09;125196;1098;105627;-76
2021/05/16 05:31:46;;;;;;;12.60;6.57;;;;;;;16.94;63.30;100071.55;125138;1099;104274;-76
2021/05/16 05:34:16;;;;;;;12.10;6.17;;;;;;;17.03;62.87;100071.58;125120;1099;104229;-76
2021/05/16 05:36:48;;;;;;;13.83;6.60;;;;;;;17.09;62.96;100074.24;125114;1099;104296;-75
2021/05/16 05:39:17;;;;;;;18.90;7.50;;;;;;;17.18;63.39;100063.66;125189;1099;104155;-76
2021/05/16 05:41:47;;;;;;;12.47;6.17;;;;;;;17.28;63.60;100061.93;125148;1102;104219;-75
2021/05/16 05:44:16;;;;;;;13.97;6.00;;;;;;;17.38;63.55;100068.12;125113;1099;104137;-76
2021/05/16 05:46:45;;;;;;;12.83;5.97;;;;;;;17.48;63.36;100061.05;125174;1099;104245;-76
2021/05/16 05:49:14;;;;;;;16.03;6.60;;;;;;;17.55;63.50;100063.70;125117;1099;104325;-75
2021/05/16 05:51:44;;;;;;;14.60;5.53;;;;;;;17.66;63.44;100060.17;125174;1099;104146;-76
2021/05/16 05:54:14;;;;;;;14.77;6.87;;;;;;;17.78;63.19;100066.35;125298;1100;104136;-76
2021/05/16 05:56:43;;;;;;;16.10;6.67;;;;;;;17.87;63.25;100062.82;125155;1100;104155;-77
2021/05/16 05:59:16;;;;;;;13.57;6.30;;;;;;;17.99;63.39;100069.02;126128;1098;104255;-76
2021/05/16 06:01:45;;;;;;;12.33;5.83;;;;;;;18.09;63.21;100062.78;126244;1099;104162;-75
2021/05/16 06:04:15;;;;;;;12.03;5.27;;;;;;;18.20;63.44;100062.77;125123;1099;104140;-77
2021/05/16 06:06:46;;;;;;;13.03;5.47;;;;;;;18.31;63.12;100056.55;125211;1100;104149;-77
2021/05/16 06:09:16;;;;;;;13.03;6.10;;;;;;;18.41;63.21;100052.08;125211;1102;104306;-76
2021/05/16 06:11:45;;;;;;;13.40;5.73;;;;;;;18.54;63.20;100060.87;125252;1102;104145;-76
2021/05/16 06:14:14;;;;;;;13.87;6.47;;;;;;;18.64;62.85;100051.99;125120;1102;104312;-77
2021/05/16 06:16:43;;;;;;;14.83;6.13;;;;;;;18.69;62.84;100051.97;125255;1102;104383;-77
2021/05/16 06:19:12;;;;;;;12.33;5.47;;;;;;;18.77;62.68;100049.28;125245;1102;104152;-76
2021/05/16 06:21:42;;;;;;;12.53;6.03;;;;;;;18.83;62.81;100038.62;125241;1100;104245;-76
2021/05/16 06:24:13;;;;;;;14.23;6.73;;;;;;;18.90;62.67;100032.42;125226;1102;104152;-76
2021/05/16 06:26:43;;;;;;;13.80;6.73;;;;;;;19.03;62.93;100034.09;125240;1102;104217;-77
2021/05/16 06:29:12;;;;;;;16.40;7.40;;;;;;;19.14;62.20;100034.02;125235;1102;104579;-77
2021/05/16 06:31:43;;;;;;;15.97;6.83;;;;;;;19.30;62.66;100032.12;125249;1102;104156;-77
2021/05/16 06:34:12;;;;;;;16.73;7.23;;;;;;;19.52;61.90;100034.62;125180;1102;104392;-77
2021/05/16 06:36:42;;;;;;;17.77;6.90;;;;;;;19.84;61.88;100028.17;125170;1102;104431;-77
2021/05/16 06:39:11;;;;;;;14.13;5.30;;;;;;;20.13;62.27;100018.98;125133;1102;104335;-77
2021/05/16 06:41:40;;;;;;;10.13;4.90;;;;;;;20.41;61.46;100020.44;125214;1102;104195;-77
2021/05/16 06:44:09;;;;;;;13.30;5.00;;;;;;;20.63;61.97;100004.14;125191;1102;104181;-77
2021/05/16 06:46:39;;;;;;;14.03;5.23;;;;;;;20.79;61.85;99997.73;125176;1103;107495;-77
2021/05/16 06:49:08;;;;;;;15.50;5.30;;;;;;;20.99;60.77;99993.91;125238;1102;104147;-77
2021/05/16 06:51:38;;;;;;;13.37;5.57;;;;;;;21.11;60.69;99991.02;125192;1102;104181;-77
2021/05/16 06:54:09;;;;;;;14.43;5.60;;;;;;;21.23;60.91;99987.30;125226;1102;104194;-77
2021/05/16 06:56:39;;;;;;;8.73;4.97;;;;;;;21.22;60.08;99989.98;125213;1102;104570;-76
2021/05/16 06:59:09;;;;;;;13.03;5.00;;;;;;;21.23;60.58;99991.76;125208;1102;104224;-76
2021/05/16 07:01:40;;;;;;;15.63;5.43;;;;;;;21.23;59.79;99991.76;125194;1101;104184;-77
2021/05/16 07:04:10;;;;;;;13.10;5.30;;;;;;;21.25;60.36;99981.93;125157;1102;104153;-76
2021/05/16 07:06:40;;;;;;;16.50;5.60;;;;;;;21.30;60.30;99988.06;125145;1102;104156;-77
2021/05/16 07:09:12;;;;;;;11.90;4.67;;;;;;;21.35;59.96;99986.22;125178;1099;104250;-78
2021/05/16 07:14:33;;;;;;;13.23;5.43;;;;;;;21.43;58.96;99991.43;125107;1102;104175;-76
2021/05/16 07:17:04;;;;;;;7.97;5.00;;;;;;;21.48;59.37;99992.22;126140;1099;104156;-76
2021/05/16 07:19:34;;;;;;;16.70;4.90;;;;;;;21.61;58.63;99995.58;125316;1102;104205;-76
2021/05/16 07:22:04;;;;;;;9.93;4.87;;;;;;;21.74;58.36;99994.47;126243;1099;104191;-76
2021/05/16 07:24:34;;;;;;;11.70;4.63;;;;;;;21.89;58.71;99994.19;126249;1099;104641;-75
2021/05/16 07:27:04;;;;;;;13.33;5.07;;;;;;;22.11;57.48;100001.79;125192;1102;104240;-76
2021/05/16 07:29:40;;;;;;;12.23;4.60;;;;;;;22.16;57.44;99994.55;125141;1102;104485;-76
2021/05/16 07:32:13;;;;;;;15.20;5.00;;;;;;;22.19;57.21;99997.16;125144;1102;104342;-76
2021/05/16 07:34:43;;;;;;;14.53;4.80;;;;;;;22.23;56.89;99992.63;125117;1102;104223;-76
2021/05/16 07:37:13;;;;;;;9.87;4.73;;;;;;;22.26;57.34;99992.56;125044;1102;104214;-76
2021/05/16 07:39:43;;;;;;;11.07;4.97;;;;;;;22.35;57.32;99988.87;125137;1102;104246;-76
2021/05/16 07:42:13;;;;;;;7.87;4.53;;;;;;;22.59;57.00;99991.02;125112;1102;104201;-76
2021/05/16 07:44:42;;;;;;;11.87;4.50;;;;;;;22.94;57.42;99988.45;125102;1102;104260;-76
2021/05/16 07:47:12;;;;;;;10.93;4.53;;;;;;;23.27;57.22;99994.81;125056;1099;104198;-76
2021/05/16 07:49:42;;;;;;;10.90;4.00;;;;;;;23.48;56.07;99997.86;125181;1099;104171;-76
2021/05/16 07:52:11;;;;;;;11.27;3.87;;;;;;;23.47;55.52;100006.83;125091;1098;104264;-76
2021/05/16 07:54:40;;;;;;;9.37;3.70;;;;;;;23.51;54.87;100008.49;125101;1099;104345;-76
2021/05/16 07:57:09;;;;;;;8.73;4.10;;;;;;;23.56;55.24;100001.25;125744;1099;104175;-76
2021/05/16 07:59:39;;;;;;;7.90;4.00;;;;;;;23.60;55.21;99997.55;126267;1099;104584;-77
2021/05/16 08:02:09;;;;;;;12.73;4.63;;;;;;;23.58;54.96;99996.72;125318;1099;104211;-76
2021/05/16 08:04:38;;;;;;;8.97;4.30;;;;;;;23.61;55.07;99987.73;126257;1099;104239;-76
2021/05/16 08:07:07;;;;;;;8.67;4.30;;;;;;;23.71;54.49;99983.01;125259;1099;104296;-77
2021/05/16 08:09:37;;;;;;;7.87;4.00;;;;;;;23.86;54.37;99993.34;126261;1099;104197;-76
2021/05/16 08:12:07;;;;;;;7.03;3.60;;;;;;;24.05;54.22;99991.03;126255;1099;104210;-76
2021/05/16 08:14:36;;;;;;;9.03;3.87;;;;;;;24.26;53.72;99985.97;126253;1099;104238;-77
2021/05/16 08:17:06;;;;;;;7.80;4.00;;;;;;;24.48;53.87;99986.22;125238;1102;104216;-76
2021/05/16 08:19:35;;;;;;;10.77;3.53;;;;;;;24.63;53.06;99987.60;126222;1099;104194;-77
2021/05/16 08:22:04;;;;;;;14.47;3.70;;;;;;;24.80;53.35;99987.09;126270;1099;104262;-76
2021/05/16 08:24:34;;;;;;;5.53;3.10;;;;;;;24.97;52.26;99992.79;125276;1099;104137;-77
2021/05/16 08:27:04;;;;;;;6.23;3.03;;;;;;;25.06;52.03;99987.13;125291;1099;104142;-77
2021/05/16 08:29:36;;;;;;;9.53;3.33;;;;;;;25.08;51.89;99985.27;126211;1099;104131;-77
2021/05/16 08:32:07;;;;;;;8.63;3.40;;;;;;;25.05;51.79;99982.67;125165;1099;104245;-77
2021/05/16 08:34:36;;;;;;;5.20;2.20;;;;;;;25.10;51.13;99985.21;125212;1099;104142;-77
2021/05/16 08:37:09;;;;;;;4.80;2.10;;;;;;;25.06;49.88;99976.39;125359;1099;104152;-77
2021/05/16 08:39:39;;;;;;;4.40;1.82;;;;;;;25.01;49.42;99978.36;126248;1099;104137;-76
2021/05/16 08:42:08;;;;;;;4.10;2.03;;;;;;;24.99;49.12;99977.51;125326;1101;104146;-77
2021/05/16 08:44:40;;;;;;;5.83;2.50;;;;;;;24.93;48.81;99981.28;125379;1099;104299;-77
2021/05/16 08:47:10;;;;;;;5.57;2.17;;;;;;;24.90;48.66;99973.33;126153;1099;104237;-76
2021/05/16 08:49:39;;;;;;;4.03;2.13;;;;;;;25.05;48.65;99966.58;125296;1102;104271;-77
2021/05/16 08:52:08;;;;;;;6.40;2.40;;;;;;;25.23;48.34;99977.66;125115;1099;104136;-77
2021/05/16 08:54:38;;;;;;;4.40;2.30;;;;;;;25.27;47.33;99976.61;125224;1102;104294;-76
2021/05/16 08:57:07;;;;;;;5.10;2.70;;;;;;;25.35;47.69;99971.02;125141;1102;104299;-77
2021/05/16 08:59:57;;;;;;;6.63;2.63;;;;;;;25.45;47.73;99969.78;125195;1102;104161;-77
2021/05/16 09:02:26;;;;;;;5.93;3.00;;;;;;;25.59;47.68;99966.62;125190;1102;104178;-76
2021/05/16 09:04:55;;;;;;;6.70;2.63;;;;;;;25.68;46.58;99966.30;125165;1102;104328;-76
2021/05/16 09:07:30;;;;;;;7.20;2.77;;;;;;;25.68;46.72;99962.72;125142;1102;105360;-76
2021/05/16 09:10:00;;;;;;;5.43;2.70;;;;;;;25.72;46.29;99957.18;125125;1102;104325;-76
2021/05/16 09:12:29;;;;;;;7.20;3.03;;;;;;;25.70;46.34;99942.94;125244;1099;104171;-76
2021/05/16 09:15:00;;;;;;;6.40;2.90;;;;;;;25.68;46.00;99938.53;125082;1102;104204;-76
2021/05/16 09:17:31;;;;;;;7.40;2.80;;;;;;;25.64;46.11;99941.33;125982;1099;104175;-77
2021/05/16 09:20:03;;;;;;;4.30;2.60;;;;;;;25.69;45.71;99933.11;126215;1099;104669;-77
2021/05/16 09:22:35;;;;;;;4.90;2.70;;;;;;;25.70;45.18;99934.88;126179;1099;104140;-76
2021/05/16 09:25:11;;;;;;;8.03;2.73;;;;;;;25.67;45.01;99928.74;126294;1099;104146;-76
2021/05/16 09:27:42;;;;;;;5.70;2.77;;;;;;;25.71;45.69;99917.83;125095;1102;104229;-77
2021/05/16 09:30:27;;;;;;;5.67;2.80;;;;;;;25.75;45.25;99922.14;125187;1099;104142;-76
2021/05/16 09:33:01;;;;;;;5.17;2.43;;;;;;;25.80;45.04;99911.22;125172;1099;104185;-76
2021/05/16 09:35:37;;;;;;;6.07;2.40;;;;;;;25.84;45.08;99912.88;125197;1099;104208;-76
2021/05/16 09:38:14;;;;;;;5.90;2.40;;;;;;;25.94;44.68;99918.78;125058;1101;104150;-76
2021/05/16 09:40:46;;;;;;;4.27;2.10;;;;;;;25.93;43.37;99915.23;125126;1099;104152;-76
2021/05/16 09:43:21;;;;;;;3.53;1.60;;;;;;;25.97;42.51;99903.44;125132;1099;104204;-76
2021/05/16 09:46:06;;;;;;;5.60;1.87;;;;;;;25.98;43.16;99905.20;125084;1099;104226;-76
2021/05/16 09:49:03;;;;;;;5.67;2.03;;;;;;;25.99;42.73;99912.34;124784;1103;104463;-76
2021/05/16 09:51:36;;;;;;;2.27;1.50;;;;;;;25.96;41.78;99904.36;124906;1102;104239;-76
2021/05/16 09:54:08;;;;;;;2.13;1.63;;;;;;;25.98;41.62;99899.83;124880;1102;104194;-77
2021/05/16 09:56:38;;;;;;;4.43;1.50;;;;;;;25.95;41.44;99893.67;124918;1103;104550;-75
2021/05/16 09:59:10;;;;;;;3.10;1.60;;;;;;;25.84;41.33;99894.94;124872;1105;104235;-76
2021/05/16 10:01:40;;;;;;;4.17;1.77;;;;;;;25.78;40.67;99897.84;124947;1102;104363;-76
2021/05/16 10:04:10;;;;;;;1.70;1.60;;;;;;;25.77;40.97;99901.48;124980;1102;104280;-76
2021/05/16 10:06:39;;;;;;;1.80;1.70;;;;;;;25.81;40.75;99894.18;124957;1102;104353;-75
2021/05/16 10:09:09;;;;;;;2.95;1.80;;;;;;;25.87;40.96;99893.05;124895;1102;104153;-76
2021/05/16 10:11:39;;;;;;;2.70;1.63;;;;;;;25.98;40.10;99893.59;124941;1102;104354;-76
2021/05/16 10:14:13;;;;;;;4.20;1.50;;;;;;;25.99;39.42;99885.47;124933;1102;104684;-76
2021/05/16 10:16:45;;;;;;;3.93;1.63;;;;;;;26.05;40.14;99891.53;124937;1105;104465;-76
2021/05/16 10:19:20;;;;;;;4.10;1.40;;;;;;;26.07;39.12;99890.55;124872;1102;104140;-76
2021/05/16 10:22:04;;;;;;;6.50;1.90;;;;;;;26.15;39.52;99888.44;125190;1099;104162;-77
2021/05/16 10:24:44;;;;;;;4.73;2.10;;;;;;;26.27;39.85;99884.41;125192;1100;104240;-76
2021/05/16 10:27:21;;;;;;;4.83;1.83;;;;;;;26.36;39.05;99888.53;125106;1102;104153;-76
2021/05/16 10:29:53;;;;;;;2.97;1.50;;;;;;;26.48;38.93;99881.80;125102;1102;104213;-76
2021/05/16 10:32:25;;;;;;;5.27;1.73;;;;;;;26.50;38.62;99879.91;125111;1099;104291;-76
2021/05/16 10:34:59;;;;;;;2.17;1.53;;;;;;;26.42;38.34;99872.16;125083;1102;104206;-76
2021/05/16 10:37:43;;;;;;;4.47;1.73;;;;;;;26.43;38.47;99865.84;125184;1099;104210;-76
2021/05/16 10:40:31;;;;;;;4.13;1.50;;;;;;;26.48;38.10;99866.53;125104;1099;104357;-76
2021/05/16 10:43:04;;;;;;;4.90;1.77;;;;;;;26.50;37.47;99863.78;125154;1099;104188;-76
2021/05/16 10:45:37;;;;;;;2.60;1.73;;;;;;;26.45;37.34;99865.78;125918;1099;104149;-76
2021/05/16 10:48:09;;;;;;;4.72;1.90;;;;;;;26.44;37.33;99864.02;125151;1100;104159;-76
2021/05/16 10:50:49;;;;;;;4.07;1.63;;;;;;;26.50;37.59;99859.27;125155;1099;104217;-76
2021/05/16 10:53:27;;;;;;;5.27;1.70;;;;;;;26.60;36.92;99856.20;125229;1099;104195;-76
2021/05/16 10:56:09;;;;;;;4.67;1.60;;;;;;;26.66;37.49;99859.57;125134;1101;104194;-76
2021/05/16 10:58:44;;;;;;;2.73;1.30;;;;;;;26.82;36.79;99856.25;125147;1099;104220;-76
2021/05/16 11:01:18;;;;;;;2.60;1.63;;;;;;;26.84;36.66;99851.67;125157;1099;104201;-76
2021/05/16 11:03:56;;;;;;;3.90;1.60;;;;;;;26.76;36.49;99853.81;125257;1099;104143;-76
2021/05/16 11:06:47;;;;;;;2.53;1.37;;;;;;;26.69;36.21;99855.86;125101;1099;104271;-76
2021/05/16 11:09:16;;;;;;;5.53;1.80;;;;;;;26.53;36.34;99847.52;125292;1099;104291;-76
2021/05/16 11:11:57;;;;;;;6.30;1.83;;;;;;;26.49;36.00;99852.15;125221;1102;104329;-76
2021/05/16 11:14:31;;;;;;;2.63;1.50;;;;;;;26.47;35.02;99845.94;125207;1102;104293;-76
2021/05/16 11:17:03;;;;;;;3.15;1.80;;;;;;;26.54;33.99;99850.14;125245;1102;104283;-75
2021/05/16 11:19:37;;;;;;;4.67;1.80;;;;;;;26.50;35.55;99835.05;125160;1102;104193;-77
2021/05/16 11:22:20;;;;;;;4.60;1.50;;;;;;;26.48;35.23;99833.38;125126;1102;104283;-76
2021/05/16 11:24:51;;;;;;;3.20;1.23;;;;;;;26.50;35.09;99829.67;125219;1102;104197;-76
2021/05/16 11:27:29;;;;;;;2.07;1.43;;;;;;;26.50;34.66;99824.30;125222;1102;104226;-75
2021/05/16 11:30:02;;;;;;;4.30;1.63;;;;;;;26.57;34.84;99822.25;125148;1102;104173;-76
2021/05/16 11:32:35;;;;;;;4.23;1.43;;;;;;;26.60;34.27;99816.74;125178;1102;107093;-77